createdAt,value
2024-02-20T00:00:23.896Z,84.82
2024-02-20T00:01:23.956Z,84.72
2024-02-20T00:02:23.892Z,84.82
2024-02-20T00:03:24.080Z,84.92
2024-02-20T00:04:23.933Z,84.82
2024-02-20T00:05:23.903Z,84.72
2024-02-20T00:06:23.853Z,84.66
2024-02-20T00:07:23.862Z,84.76
2024-02-20T00:08:23.804Z,84.86
2024-02-20T00:09:23.848Z,84.86
2024-02-20T00:10:23.792Z,84.86
2024-02-20T00:11:23.878Z,84.86
2024-02-20T00:12:23.853Z,84.86
2024-02-20T00:13:23.776Z,84.86
2024-02-20T00:14:23.725Z,84.66
2024-02-20T00:15:23.725Z,84.66
2024-02-20T00:16:23.878Z,84.76
2024-02-20T00:17:23.724Z,84.66
2024-02-20T00:18:23.842Z,84.61
2024-02-20T00:19:23.844Z,84.61
2024-02-20T00:20:23.655Z,84.72
2024-02-20T00:21:23.660Z,84.72
2024-02-20T00:22:23.676Z,84.61
2024-02-20T00:23:23.650Z,84.61
2024-02-20T00:24:23.673Z,84.55
2024-02-20T00:25:23.698Z,84.61
2024-02-20T00:26:23.593Z,84.61
2024-02-20T00:27:23.611Z,84.66
2024-02-20T00:28:23.639Z,84.66
2024-02-20T00:29:23.552Z,84.55
2024-02-20T00:30:23.607Z,84.66
2024-02-20T00:31:23.559Z,84.66
2024-02-20T00:32:23.764Z,84.66
2024-02-20T00:33:23.505Z,84.66
2024-02-20T00:34:23.668Z,84.76
2024-02-20T00:35:23.620Z,84.55
2024-02-20T00:36:23.638Z,84.45
2024-02-20T00:37:23.505Z,84.45
2024-02-20T00:38:23.452Z,84.31
2024-02-20T00:39:23.472Z,84.34
2024-02-20T00:40:23.486Z,84.31
2024-02-20T00:41:23.415Z,84.31
2024-02-20T00:42:25.590Z,84.20
2024-02-20T00:43:23.456Z,84.31
2024-02-20T00:44:23.422Z,84.20
2024-02-20T00:45:23.399Z,84.31
2024-02-20T00:46:23.547Z,84.31
2024-02-20T00:47:23.454Z,84.31
2024-02-20T00:48:23.465Z,84.20
2024-02-20T00:49:23.472Z,84.31
2024-02-20T00:50:23.324Z,84.31
2024-02-20T00:51:23.363Z,84.52
2024-02-20T00:52:23.353Z,84.72
2024-02-20T00:53:23.366Z,84.82
2024-02-20T00:54:23.294Z,85.03
2024-02-20T00:55:23.294Z,85.23
2024-02-20T00:56:23.257Z,85.44
2024-02-20T00:57:23.249Z,85.47
2024-02-20T00:58:23.284Z,85.58
2024-02-20T00:59:23.261Z,85.68
2024-02-20T01:00:23.205Z,85.89
2024-02-20T01:01:23.309Z,85.89
2024-02-20T01:02:23.178Z,85.89
2024-02-20T01:03:23.223Z,86.09
2024-02-20T01:04:23.263Z,86.19
2024-02-20T01:05:23.204Z,86.30
2024-02-20T01:06:23.246Z,86.19
2024-02-20T01:07:23.149Z,86.30
2024-02-20T01:08:23.119Z,86.40
2024-02-20T01:09:23.126Z,86.40
2024-02-20T01:10:23.216Z,86.40
2024-02-20T01:11:24.980Z,86.50
2024-02-20T01:12:23.129Z,86.19
2024-02-20T01:13:23.091Z,86.19
2024-02-20T01:14:23.051Z,86.19
2024-02-20T01:15:23.080Z,86.40
2024-02-20T01:16:23.040Z,86.50
2024-02-20T01:17:23.093Z,86.60
2024-02-20T01:18:23.093Z,86.60
2024-02-20T01:19:23.143Z,86.60
2024-02-20T01:20:23.052Z,86.60
2024-02-20T01:21:22.981Z,86.71
2024-02-20T01:22:22.999Z,86.60
2024-02-20T01:23:22.964Z,86.30
2024-02-20T01:24:22.949Z,86.30
2024-02-20T01:25:22.978Z,86.50
2024-02-20T01:26:22.963Z,86.60
2024-02-20T01:27:22.914Z,86.60
2024-02-20T01:28:22.891Z,86.50
2024-02-20T01:29:23.457Z,86.50
2024-02-20T01:30:22.872Z,86.40
2024-02-20T01:31:23.025Z,86.30
2024-02-20T01:32:22.864Z,86.19
2024-02-20T01:33:22.900Z,86.19
2024-02-20T01:34:23.088Z,86.30
2024-02-20T01:35:22.828Z,86.30
2024-02-20T01:36:22.842Z,86.09
2024-02-20T01:37:22.870Z,85.99
2024-02-20T01:38:22.782Z,85.99
2024-02-20T01:39:22.795Z,85.99
2024-02-20T01:40:22.772Z,85.78
2024-02-20T01:41:22.747Z,85.89
2024-02-20T01:42:22.756Z,85.78
2024-02-20T01:43:22.787Z,85.27
2024-02-20T01:44:22.708Z,85.06
2024-02-20T01:45:22.700Z,85.17
2024-02-20T01:46:22.893Z,85.17
2024-02-20T01:47:22.679Z,85.17
2024-02-20T01:48:22.824Z,85.06
2024-02-20T01:49:22.853Z,85.17
2024-02-20T01:50:22.702Z,85.06
2024-02-20T01:51:22.651Z,84.96
2024-02-20T01:52:22.686Z,84.86
2024-02-20T01:53:22.635Z,84.86
2024-02-20T01:54:22.641Z,84.86
2024-02-20T01:55:22.623Z,84.86
2024-02-20T01:56:22.571Z,84.86
2024-02-20T01:57:22.560Z,84.96
2024-02-20T01:58:22.615Z,85.06
2024-02-20T01:59:22.618Z,85.17
2024-02-20T02:00:22.512Z,85.17
2024-02-20T02:01:22.595Z,85.06
2024-02-20T02:02:22.509Z,85.17
2024-02-20T02:03:22.506Z,85.38
2024-02-20T02:04:22.758Z,85.47
2024-02-20T02:05:22.665Z,85.58
2024-02-20T02:06:22.523Z,85.58
2024-02-20T02:07:22.536Z,85.47
2024-02-20T02:08:22.457Z,85.47
2024-02-20T02:09:22.415Z,85.47
2024-02-20T02:10:22.428Z,85.58
2024-02-20T02:11:22.433Z,85.68
2024-02-20T02:12:22.406Z,85.78
2024-02-20T02:13:22.385Z,85.78
2024-02-20T02:14:22.406Z,85.68
2024-02-20T02:15:22.342Z,85.68
2024-02-20T02:16:22.388Z,85.68
2024-02-20T02:17:22.359Z,85.68
2024-02-20T02:18:22.372Z,85.68
2024-02-20T02:19:22.481Z,85.68
2024-02-20T02:20:22.348Z,85.58
2024-02-20T02:21:22.312Z,85.58
2024-02-20T02:22:22.313Z,85.58
2024-02-20T02:23:22.262Z,85.58
2024-02-20T02:24:22.280Z,85.58
2024-02-20T02:25:22.302Z,85.68
2024-02-20T02:26:22.224Z,85.78
2024-02-20T02:27:22.197Z,85.99
2024-02-20T02:28:22.262Z,85.99
2024-02-20T02:29:22.194Z,85.99
2024-02-20T02:30:22.225Z,85.99
2024-02-20T02:31:22.227Z,85.89
2024-02-20T02:32:22.197Z,85.78
2024-02-20T02:33:22.140Z,85.58
2024-02-20T02:34:22.231Z,85.68
2024-02-20T02:35:22.312Z,85.93
2024-02-20T02:36:22.131Z,85.89
2024-02-20T02:37:22.129Z,85.89
2024-02-20T02:38:22.102Z,85.89
2024-02-20T02:39:22.080Z,85.93
2024-02-20T02:40:22.084Z,86.03
2024-02-20T02:41:22.127Z,85.93
2024-02-20T02:42:22.049Z,86.13
2024-02-20T02:43:22.117Z,86.24
2024-02-20T02:44:22.051Z,86.13
2024-02-20T02:45:22.018Z,86.24
2024-02-20T02:46:22.063Z,86.33
2024-02-20T02:47:21.993Z,86.33
2024-02-20T02:48:22.036Z,86.44
2024-02-20T02:49:22.133Z,86.24
2024-02-20T02:50:22.148Z,86.13
2024-02-20T02:51:21.950Z,86.03
2024-02-20T02:52:21.985Z,86.24
2024-02-20T02:53:21.899Z,86.13
2024-02-20T02:54:21.910Z,86.24
2024-02-20T02:55:22.009Z,86.27
2024-02-20T02:56:21.883Z,86.38
2024-02-20T02:57:21.882Z,86.48
2024-02-20T02:58:21.917Z,86.48
2024-02-20T02:59:21.882Z,86.38
2024-02-20T03:00:21.816Z,86.44
2024-02-20T03:01:21.898Z,86.44
2024-02-20T03:02:21.812Z,86.24
2024-02-20T03:03:21.897Z,86.24
2024-02-20T03:04:21.826Z,86.24
2024-02-20T03:05:21.780Z,86.33
2024-02-20T03:06:21.857Z,86.33
2024-02-20T03:07:21.833Z,86.24
2024-02-20T03:08:21.737Z,86.13
2024-02-20T03:09:21.747Z,86.13
2024-02-20T03:10:21.848Z,86.13
2024-02-20T03:11:21.779Z,86.13
2024-02-20T03:12:21.757Z,86.13
2024-02-20T03:13:21.722Z,86.24
2024-02-20T03:14:21.694Z,86.03
2024-02-20T03:15:21.669Z,86.03
2024-02-20T03:16:21.694Z,86.13
2024-02-20T03:17:21.675Z,86.03
2024-02-20T03:18:21.660Z,85.82
2024-02-20T03:19:21.791Z,85.82
2024-02-20T03:20:21.614Z,85.82
2024-02-20T03:21:21.602Z,85.72
2024-02-20T03:22:21.676Z,85.76
2024-02-20T03:23:21.572Z,85.76
2024-02-20T03:24:21.563Z,85.62
2024-02-20T03:25:21.605Z,85.31
2024-02-20T03:26:21.566Z,85.31
2024-02-20T03:27:21.566Z,85.41
2024-02-20T03:28:21.537Z,85.31
2024-02-20T03:29:21.521Z,85.31
2024-02-20T03:30:21.473Z,85.21
2024-02-20T03:31:21.500Z,85.00
2024-02-20T03:32:21.483Z,85.11
2024-02-20T03:33:21.580Z,85.11
2024-02-20T03:34:21.584Z,85.11
2024-02-20T03:35:21.454Z,85.00
2024-02-20T03:36:21.412Z,85.11
2024-02-20T03:37:21.454Z,85.11
2024-02-20T03:38:21.487Z,85.00
2024-02-20T03:39:21.364Z,85.11
2024-02-20T03:40:21.491Z,85.11
2024-02-20T03:41:21.344Z,85.11
2024-02-20T03:42:21.391Z,84.90
2024-02-20T03:43:21.379Z,84.80
2024-02-20T03:44:21.318Z,84.80
2024-02-20T03:45:21.336Z,84.80
2024-02-20T03:46:21.378Z,84.90
2024-02-20T03:47:21.381Z,85.00
2024-02-20T03:48:21.489Z,85.00
2024-02-20T03:49:21.602Z,85.11
2024-02-20T03:50:21.342Z,85.21
2024-02-20T03:51:21.266Z,85.31
2024-02-20T03:52:21.332Z,85.52
2024-02-20T03:53:21.251Z,85.62
2024-02-20T03:54:21.253Z,85.52
2024-02-20T03:55:21.246Z,85.82
2024-02-20T03:56:21.182Z,86.24
2024-02-20T03:57:21.173Z,86.38
2024-02-20T03:58:21.301Z,86.58
2024-02-20T03:59:21.145Z,86.68
2024-02-20T04:00:21.121Z,86.68
2024-02-20T04:01:21.246Z,86.48
2024-02-20T04:02:21.134Z,86.07
2024-02-20T04:03:21.139Z,86.07
2024-02-20T04:04:21.165Z,86.07
2024-02-20T04:05:21.476Z,86.07
2024-02-20T04:06:21.189Z,85.86
2024-02-20T04:07:21.122Z,85.66
2024-02-20T04:08:21.044Z,85.66
2024-02-20T04:09:21.024Z,85.66
2024-02-20T04:10:21.141Z,85.55
2024-02-20T04:11:21.116Z,85.55
2024-02-20T04:12:21.053Z,85.76
2024-02-20T04:13:21.047Z,85.97
2024-02-20T04:14:20.984Z,85.86
2024-02-20T04:15:21.019Z,85.86
2024-02-20T04:16:21.016Z,85.76
2024-02-20T04:17:20.954Z,85.76
2024-02-20T04:18:21.067Z,85.86
2024-02-20T04:19:21.075Z,85.66
2024-02-20T04:20:21.023Z,85.66
2024-02-20T04:21:20.906Z,85.66
2024-02-20T04:22:20.927Z,85.55
2024-02-20T04:23:20.898Z,85.55
2024-02-20T04:24:20.880Z,85.66
2024-02-20T04:25:20.963Z,85.86
2024-02-20T04:26:20.824Z,85.76
2024-02-20T04:27:20.831Z,85.97
2024-02-20T04:28:21.001Z,86.07
2024-02-20T04:29:20.811Z,86.07
2024-02-20T04:30:20.798Z,86.07
2024-02-20T04:31:20.850Z,86.07
2024-02-20T04:32:20.755Z,86.27
2024-02-20T04:33:22.284Z,86.79
2024-02-20T04:34:20.811Z,86.99
2024-02-20T04:35:20.779Z,86.99
2024-02-20T04:36:20.719Z,87.55
2024-02-20T04:37:20.762Z,87.34
2024-02-20T04:38:20.756Z,87.24
2024-02-20T04:39:20.683Z,87.24
2024-02-20T04:40:20.753Z,87.45
2024-02-20T04:41:20.670Z,87.55
2024-02-20T04:42:20.658Z,87.55
2024-02-20T04:43:20.679Z,87.55
2024-02-20T04:44:20.680Z,87.65
2024-02-20T04:45:20.641Z,87.45
2024-02-20T04:46:20.636Z,87.45
2024-02-20T04:47:22.054Z,87.55
2024-02-20T04:48:20.752Z,87.55
2024-02-20T04:49:20.735Z,87.55
2024-02-20T04:50:20.563Z,87.65
2024-02-20T04:51:20.568Z,87.45
2024-02-20T04:52:20.645Z,87.13
2024-02-20T04:53:20.531Z,87.24
2024-02-20T04:54:20.611Z,87.24
2024-02-20T04:55:20.566Z,87.24
2024-02-20T04:56:20.504Z,87.04
2024-02-20T04:57:20.526Z,87.13
2024-02-20T04:58:20.499Z,87.24
2024-02-20T04:59:20.518Z,86.93
2024-02-20T05:00:20.457Z,86.83
2024-02-20T05:01:20.542Z,86.83
2024-02-20T05:02:20.530Z,86.83
2024-02-20T05:03:20.473Z,86.72
2024-02-20T05:04:20.525Z,86.83
2024-02-20T05:05:20.474Z,86.93
2024-02-20T05:06:20.406Z,86.83
2024-02-20T05:07:20.484Z,86.83
2024-02-20T05:08:20.366Z,86.62
2024-02-20T05:09:20.357Z,86.62
2024-02-20T05:10:20.462Z,86.52
2024-02-20T05:11:20.364Z,86.52
2024-02-20T05:12:20.315Z,86.32
2024-02-20T05:13:20.385Z,86.21
2024-02-20T05:14:20.296Z,85.90
2024-02-20T05:15:20.332Z,85.39
2024-02-20T05:16:20.313Z,85.18
2024-02-20T05:17:20.244Z,85.18
2024-02-20T05:18:20.271Z,85.28
2024-02-20T05:19:20.325Z,85.39
2024-02-20T05:20:20.274Z,85.49
2024-02-20T05:21:20.181Z,85.49
2024-02-20T05:22:20.270Z,85.28
2024-02-20T05:23:20.181Z,85.08
2024-02-20T05:24:20.146Z,84.88
2024-02-20T05:25:20.245Z,84.77
2024-02-20T05:26:20.148Z,84.67
2024-02-20T05:27:20.128Z,84.77
2024-02-20T05:28:20.207Z,84.77
2024-02-20T05:29:20.101Z,84.05
2024-02-20T05:30:20.131Z,83.85
2024-02-20T05:31:20.177Z,83.95
2024-02-20T05:32:20.065Z,83.85
2024-02-20T05:33:20.138Z,84.05
2024-02-20T05:34:20.154Z,84.16
2024-02-20T05:35:20.173Z,84.05
2024-02-20T05:36:20.097Z,84.16
2024-02-20T05:37:20.051Z,84.16
2024-02-20T05:38:19.991Z,83.95
2024-02-20T05:39:20.025Z,83.85
2024-02-20T05:40:20.030Z,83.54
2024-02-20T05:41:19.969Z,83.44
2024-02-20T05:42:19.960Z,83.64
2024-02-20T05:43:20.006Z,83.64
2024-02-20T05:44:20.118Z,83.75
2024-02-20T05:45:19.956Z,83.75
2024-02-20T05:46:20.004Z,83.64
2024-02-20T05:47:19.902Z,83.44
2024-02-20T05:48:20.041Z,83.44
2024-02-20T05:49:20.075Z,83.44
2024-02-20T05:50:19.925Z,83.33
2024-02-20T05:51:19.897Z,83.33
2024-02-20T05:52:19.890Z,83.44
2024-02-20T05:53:19.815Z,83.44
2024-02-20T05:54:19.814Z,83.44
2024-02-20T05:55:19.880Z,83.44
2024-02-20T05:56:19.829Z,83.44
2024-02-20T05:57:19.768Z,83.44
2024-02-20T05:58:19.786Z,83.64
2024-02-20T05:59:19.784Z,83.64
2024-02-20T06:00:19.745Z,83.54
2024-02-20T06:01:19.973Z,83.64
2024-02-20T06:02:19.765Z,83.64
2024-02-20T06:03:19.706Z,83.54
2024-02-20T06:04:19.864Z,83.44
2024-02-20T06:05:19.843Z,83.44
2024-02-20T06:06:19.710Z,83.33
2024-02-20T06:07:19.754Z,83.54
2024-02-20T06:08:19.650Z,83.44
2024-02-20T06:09:19.660Z,83.33
2024-02-20T06:10:19.774Z,83.54
2024-02-20T06:11:19.956Z,83.75
2024-02-20T06:12:19.666Z,84.05
2024-02-20T06:13:19.684Z,83.95
2024-02-20T06:14:19.586Z,84.05
2024-02-20T06:15:19.573Z,83.85
2024-02-20T06:16:19.580Z,83.64
2024-02-20T06:17:19.586Z,83.64
2024-02-20T06:18:19.629Z,83.75
2024-02-20T06:19:19.701Z,83.64
2024-02-20T06:20:19.513Z,83.95
2024-02-20T06:21:19.528Z,84.05
2024-02-20T06:22:19.519Z,84.16
2024-02-20T06:23:19.496Z,84.16
2024-02-20T06:24:19.470Z,84.40
2024-02-20T06:25:19.621Z,84.09
2024-02-20T06:26:19.448Z,84.09
2024-02-20T06:27:19.477Z,83.95
2024-02-20T06:28:19.473Z,83.75
2024-02-20T06:29:19.441Z,83.85
2024-02-20T06:30:19.442Z,83.64
2024-02-20T06:31:19.477Z,83.54
2024-02-20T06:32:19.384Z,83.23
2024-02-20T06:33:19.553Z,83.33
2024-02-20T06:34:19.513Z,83.54
2024-02-20T06:35:19.479Z,83.44
2024-02-20T06:36:19.367Z,83.17
2024-02-20T06:37:19.383Z,83.13
2024-02-20T06:38:19.302Z,82.55
2024-02-20T06:39:19.337Z,82.45
2024-02-20T06:40:19.461Z,82.34
2024-02-20T06:41:19.283Z,82.45
2024-02-20T06:42:19.261Z,82.65
2024-02-20T06:43:19.322Z,82.55
2024-02-20T06:44:19.293Z,82.51
2024-02-20T06:45:19.250Z,82.71
2024-02-20T06:46:19.276Z,82.82
2024-02-20T06:47:19.263Z,82.92
2024-02-20T06:48:19.336Z,83.03
2024-02-20T06:49:19.369Z,83.23
2024-02-20T06:50:19.226Z,83.23
2024-02-20T06:51:19.169Z,83.33
2024-02-20T06:52:19.265Z,83.33
2024-02-20T06:53:19.198Z,83.54
2024-02-20T06:54:19.570Z,83.64
2024-02-20T06:55:19.151Z,83.58
2024-02-20T06:56:19.106Z,83.78
2024-02-20T06:57:19.115Z,83.89
2024-02-20T06:58:19.116Z,83.89
2024-02-20T06:59:19.108Z,84.09
2024-02-20T07:00:19.043Z,83.78
2024-02-20T07:01:19.142Z,83.68
2024-02-20T07:02:19.143Z,83.54
2024-02-20T07:03:19.050Z,83.54
2024-02-20T07:04:19.111Z,83.64
2024-02-20T07:05:19.256Z,83.44
2024-02-20T07:06:19.194Z,83.23
2024-02-20T07:07:19.018Z,83.03
2024-02-20T07:08:18.992Z,82.82
2024-02-20T07:09:18.931Z,82.71
2024-02-20T07:10:18.996Z,82.71
2024-02-20T07:11:18.937Z,82.71
2024-02-20T07:12:21.955Z,82.82
2024-02-20T07:13:18.953Z,82.82
2024-02-20T07:14:18.900Z,82.31
2024-02-20T07:15:18.880Z,82.20
2024-02-20T07:16:18.935Z,82.71
2024-02-20T07:17:18.934Z,82.82
2024-02-20T07:18:18.894Z,82.92
2024-02-20T07:19:18.918Z,82.71
2024-02-20T07:20:19.056Z,82.51
2024-02-20T07:21:18.808Z,82.51
2024-02-20T07:22:18.862Z,82.51
2024-02-20T07:23:18.850Z,82.62
2024-02-20T07:24:18.789Z,82.41
2024-02-20T07:25:18.818Z,82.20
2024-02-20T07:26:18.753Z,82.24
2024-02-20T07:27:18.761Z,82.20
2024-02-20T07:28:18.809Z,82.00
2024-02-20T07:29:18.741Z,82.04
2024-02-20T07:30:18.695Z,82.24
2024-02-20T07:31:18.727Z,82.55
2024-02-20T07:32:18.680Z,82.45
2024-02-20T07:33:27.915Z,82.86
2024-02-20T07:34:19.916Z,83.17
2024-02-20T07:35:19.178Z,83.78
2024-02-20T07:36:18.702Z,84.20
2024-02-20T07:37:18.681Z,84.20
2024-02-20T07:38:18.599Z,83.95
2024-02-20T07:39:18.659Z,83.75
2024-02-20T07:40:18.675Z,83.23
2024-02-20T07:41:18.568Z,83.27
2024-02-20T07:42:18.561Z,83.17
2024-02-20T07:43:18.577Z,83.17
2024-02-20T07:44:18.628Z,83.27
2024-02-20T07:45:19.752Z,83.37
2024-02-20T07:46:18.594Z,83.48
2024-02-20T07:47:18.542Z,83.37
2024-02-20T07:48:18.624Z,83.27
2024-02-20T07:49:19.238Z,83.06
2024-02-20T07:50:18.620Z,83.13
2024-02-20T07:51:18.521Z,82.92
2024-02-20T07:52:18.540Z,82.41
2024-02-20T07:53:18.476Z,82.27
2024-02-20T07:54:18.429Z,82.06
2024-02-20T07:55:18.511Z,82.17
2024-02-20T07:56:18.429Z,82.17
2024-02-20T07:57:18.425Z,81.34
2024-02-20T07:58:22.177Z,81.14
2024-02-20T07:59:19.513Z,81.14
2024-02-20T08:00:18.386Z,81.04
2024-02-20T08:01:21.265Z,81.00
2024-02-20T08:02:18.492Z,80.58
2024-02-20T08:03:18.338Z,80.18
2024-02-20T08:04:18.437Z,80.28
2024-02-20T08:05:18.445Z,80.21
2024-02-20T08:06:18.312Z,80.32
2024-02-20T08:07:18.372Z,80.38
2024-02-20T08:08:18.294Z,80.28
2024-02-20T08:09:18.266Z,80.38
2024-02-20T08:10:18.262Z,80.42
2024-02-20T08:11:18.253Z,80.42
2024-02-20T08:12:18.231Z,80.52
2024-02-20T08:13:18.312Z,80.42
2024-02-20T08:14:18.542Z,80.63
2024-02-20T08:15:18.228Z,80.93
2024-02-20T08:16:18.274Z,80.93
2024-02-20T08:17:18.176Z,80.83
2024-02-20T08:18:18.196Z,80.83
2024-02-20T08:19:18.258Z,80.49
2024-02-20T08:20:18.271Z,80.28
2024-02-20T08:21:18.146Z,80.07
2024-02-20T08:22:18.201Z,79.73
2024-02-20T08:23:18.087Z,79.11
2024-02-20T08:24:18.120Z,79.11
2024-02-20T08:25:18.158Z,78.81
2024-02-20T08:26:18.087Z,78.60
2024-02-20T08:27:18.078Z,78.91
2024-02-20T08:28:18.116Z,78.50
2024-02-20T08:29:18.096Z,78.29
2024-02-20T08:30:18.069Z,78.50
2024-02-20T08:31:18.289Z,78.50
2024-02-20T08:32:17.993Z,78.46
2024-02-20T08:33:18.018Z,78.09
2024-02-20T08:34:18.084Z,78.50
2024-02-20T08:35:18.063Z,78.64
2024-02-20T08:36:17.993Z,78.74
2024-02-20T08:37:17.984Z,78.94
2024-02-20T08:38:17.955Z,79.22
2024-02-20T08:39:17.945Z,79.32
2024-02-20T08:40:17.988Z,78.91
2024-02-20T08:41:17.957Z,78.70
2024-02-20T08:42:17.908Z,78.91
2024-02-20T08:43:17.903Z,78.91
2024-02-20T08:44:17.878Z,78.67
2024-02-20T08:45:17.864Z,78.25
2024-02-20T08:46:17.898Z,77.74
2024-02-20T08:47:17.861Z,77.44
2024-02-20T08:48:17.897Z,77.09
2024-02-20T08:49:17.963Z,76.89
2024-02-20T08:50:18.310Z,76.89
2024-02-20T08:51:17.781Z,76.37
2024-02-20T08:52:17.847Z,75.45
2024-02-20T08:53:17.780Z,75.90
2024-02-20T08:54:17.734Z,76.00
2024-02-20T08:55:17.846Z,76.17
2024-02-20T08:56:17.750Z,75.56
2024-02-20T08:57:18.761Z,75.45
2024-02-20T08:58:17.724Z,75.15
2024-02-20T08:59:17.724Z,75.15
2024-02-20T09:00:17.702Z,74.53
2024-02-20T09:01:17.840Z,74.66
2024-02-20T09:02:18.043Z,75.18
2024-02-20T09:03:18.707Z,75.35
2024-02-20T09:04:17.908Z,74.94
2024-02-20T09:05:17.870Z,73.68
2024-02-20T09:06:17.734Z,73.03
2024-02-20T09:07:17.778Z,72.72
2024-02-20T09:08:17.616Z,72.52
2024-02-20T09:09:17.654Z,72.72
2024-02-20T09:10:17.779Z,72.00
2024-02-20T09:11:17.754Z,72.00
2024-02-20T09:12:17.684Z,71.45
2024-02-20T09:13:17.695Z,71.45
2024-02-20T09:14:17.545Z,71.25
2024-02-20T09:15:20.628Z,71.45
2024-02-20T09:16:17.696Z,71.15
2024-02-20T09:17:17.484Z,70.91
2024-02-20T09:18:17.493Z,69.99
2024-02-20T09:19:17.653Z,69.82
2024-02-20T09:20:17.565Z,68.69
2024-02-20T09:21:17.491Z,68.08
2024-02-20T09:22:17.539Z,68.69
2024-02-20T09:23:17.423Z,68.90
2024-02-20T09:24:17.410Z,68.46
2024-02-20T09:25:17.475Z,67.84
2024-02-20T09:26:17.441Z,67.54
2024-02-20T09:27:18.404Z,67.74
2024-02-20T09:28:17.425Z,67.30
2024-02-20T09:29:17.361Z,65.36
2024-02-20T09:30:17.323Z,64.95
2024-02-20T09:31:17.404Z,65.02
2024-02-20T09:32:17.336Z,63.89
2024-02-20T09:33:17.337Z,64.37
2024-02-20T09:34:17.407Z,64.27
2024-02-20T09:35:17.340Z,64.27
2024-02-20T09:36:17.337Z,64.24
2024-02-20T09:37:17.269Z,63.93
2024-02-20T09:38:17.359Z,63.73
2024-02-20T09:39:17.270Z,63.43
2024-02-20T09:40:17.288Z,61.97
2024-02-20T09:41:17.390Z,61.28
2024-02-20T09:42:17.196Z,60.57
2024-02-20T09:43:17.297Z,60.77
2024-02-20T09:44:17.220Z,60.80
2024-02-20T09:45:17.163Z,60.97
2024-02-20T09:46:17.326Z,60.87
2024-02-20T09:47:17.228Z,60.13
2024-02-20T09:48:17.227Z,59.52
2024-02-20T09:49:17.303Z,59.52
2024-02-20T09:50:17.200Z,59.18
2024-02-20T09:51:17.477Z,59.52
2024-02-20T09:52:18.176Z,60.16
2024-02-20T09:53:19.632Z,60.87
2024-02-20T09:54:17.097Z,61.41
2024-02-20T09:55:17.318Z,62.13
2024-02-20T09:56:17.086Z,62.26
2024-02-20T09:57:17.043Z,61.75
2024-02-20T09:58:17.088Z,61.44
2024-02-20T09:59:17.040Z,61.77
2024-02-20T10:00:17.010Z,61.77
2024-02-20T10:01:17.110Z,61.88
2024-02-20T10:02:16.997Z,61.88
2024-02-20T10:03:17.031Z,61.47
2024-02-20T10:04:17.012Z,61.88
2024-02-20T10:05:17.228Z,62.18
2024-02-20T10:06:17.039Z,62.39
2024-02-20T10:07:16.962Z,62.08
2024-02-20T10:08:16.951Z,62.42
2024-02-20T10:09:16.938Z,63.26
2024-02-20T10:10:17.265Z,63.47
2024-02-20T10:11:16.916Z,64.18
2024-02-20T10:12:17.000Z,64.06
2024-02-20T10:13:16.920Z,64.16
2024-02-20T10:14:16.843Z,63.95
2024-02-20T10:15:16.829Z,64.26
2024-02-20T10:16:16.930Z,63.95
2024-02-20T10:17:16.863Z,64.09
2024-02-20T10:18:16.861Z,64.39
2024-02-20T10:19:17.200Z,64.29
2024-02-20T10:20:16.800Z,64.60
2024-02-20T10:21:16.776Z,64.62
2024-02-20T10:22:16.757Z,65.24
2024-02-20T10:23:16.760Z,65.55
2024-02-20T10:24:24.676Z,65.86
2024-02-20T10:25:17.769Z,65.65
2024-02-20T10:26:16.745Z,65.65
2024-02-20T10:27:16.708Z,65.75
2024-02-20T10:28:16.720Z,65.86
2024-02-20T10:29:16.732Z,65.72
2024-02-20T10:30:16.650Z,65.65
2024-02-20T10:31:16.646Z,65.96
2024-02-20T10:32:16.630Z,66.03
2024-02-20T10:33:16.778Z,65.72
2024-02-20T10:34:16.738Z,65.52
2024-02-20T10:35:16.677Z,65.31
2024-02-20T10:36:16.617Z,65.31
2024-02-20T10:37:16.634Z,65.18
2024-02-20T10:38:16.931Z,65.01
2024-02-20T10:39:16.575Z,65.01
2024-02-20T10:40:26.463Z,65.11
2024-02-20T10:41:17.601Z,65.42
2024-02-20T10:42:16.528Z,65.93
2024-02-20T10:43:16.520Z,65.01
2024-02-20T10:44:17.121Z,64.80
2024-02-20T10:45:16.494Z,65.21
2024-02-20T10:46:17.542Z,65.11
2024-02-20T10:47:16.454Z,65.04
2024-02-20T10:48:16.534Z,65.55
2024-02-20T10:49:16.646Z,65.75
2024-02-20T10:50:16.528Z,65.96
2024-02-20T10:51:16.419Z,65.52
2024-02-20T10:52:16.438Z,65.55
2024-02-20T10:53:16.395Z,65.72
2024-02-20T10:54:16.419Z,65.72
2024-02-20T10:55:27.023Z,65.83
2024-02-20T10:56:17.670Z,65.52
2024-02-20T10:57:16.540Z,65.83
2024-02-20T10:58:16.431Z,65.96
2024-02-20T10:59:16.345Z,66.27
2024-02-20T11:00:17.372Z,66.78
2024-02-20T11:01:16.428Z,66.67
2024-02-20T11:02:16.377Z,66.27
2024-02-20T11:03:16.310Z,66.88
2024-02-20T11:04:16.414Z,66.27
2024-02-20T11:05:16.458Z,65.45
2024-02-20T11:06:16.287Z,65.65
2024-02-20T11:07:16.319Z,65.86
2024-02-20T11:08:16.394Z,65.34
2024-02-20T11:09:16.231Z,65.01
2024-02-20T11:10:16.262Z,65.62
2024-02-20T11:11:16.462Z,64.87
2024-02-20T11:12:16.176Z,64.06
2024-02-20T11:13:16.656Z,63.65
2024-02-20T11:14:16.165Z,63.57
2024-02-20T11:15:16.191Z,63.57
2024-02-20T11:16:16.223Z,63.88
2024-02-20T11:17:29.051Z,63.75
2024-02-20T11:18:17.646Z,63.95
2024-02-20T11:19:16.187Z,63.34
2024-02-20T11:20:16.265Z,63.26
2024-02-20T11:21:16.111Z,63.34
2024-02-20T11:22:16.114Z,63.03
2024-02-20T11:23:16.051Z,63.54
2024-02-20T11:24:17.794Z,63.13
2024-02-20T11:25:16.525Z,63.03
2024-02-20T11:26:16.076Z,63.00
2024-02-20T11:27:16.267Z,61.88
2024-02-20T11:28:16.839Z,61.75
2024-02-20T11:29:16.012Z,61.67
2024-02-20T11:30:16.030Z,62.16
2024-02-20T11:31:15.989Z,61.85
2024-02-20T11:32:16.003Z,61.95
2024-02-20T11:33:16.002Z,61.72
2024-02-20T11:34:15.996Z,61.51
2024-02-20T11:35:16.004Z,61.85
2024-02-20T11:36:15.963Z,62.57
2024-02-20T11:37:15.965Z,62.77
2024-02-20T11:38:15.934Z,62.26
2024-02-20T11:39:15.902Z,62.49
2024-02-20T11:40:15.898Z,62.29
2024-02-20T11:41:15.903Z,62.59
2024-02-20T11:42:15.860Z,62.83
2024-02-20T11:43:15.844Z,62.70
2024-02-20T11:44:15.896Z,62.59
2024-02-20T11:45:15.827Z,62.39
2024-02-20T11:46:15.906Z,62.08
2024-02-20T11:47:15.818Z,62.16
2024-02-20T11:48:16.933Z,62.16
2024-02-20T11:49:15.978Z,61.72
2024-02-20T11:50:15.872Z,60.87
2024-02-20T11:51:15.769Z,60.97
2024-02-20T11:52:15.862Z,60.87
2024-02-20T11:53:15.953Z,60.67
2024-02-20T11:54:15.719Z,60.85
2024-02-20T11:55:15.757Z,60.13
2024-02-20T11:56:15.687Z,60.33
2024-02-20T11:57:15.751Z,60.13
2024-02-20T11:58:15.695Z,59.62
2024-02-20T11:59:15.685Z,60.05
2024-02-20T12:00:15.672Z,60.69
2024-02-20T12:01:15.775Z,61.31
2024-02-20T12:02:15.730Z,61.65
2024-02-20T12:03:15.654Z,62.39
2024-02-20T12:04:15.697Z,62.90
2024-02-20T12:05:15.648Z,63.21
2024-02-20T12:06:15.641Z,63.31
2024-02-20T12:07:15.665Z,63.51
2024-02-20T12:08:15.874Z,63.82
2024-02-20T12:09:15.558Z,63.72
2024-02-20T12:10:15.588Z,63.69
2024-02-20T12:11:16.672Z,63.69
2024-02-20T12:12:15.515Z,63.69
2024-02-20T12:13:15.607Z,63.59
2024-02-20T12:14:15.506Z,63.62
2024-02-20T12:15:15.495Z,64.13
2024-02-20T12:16:15.627Z,64.23
2024-02-20T12:17:15.464Z,64.23
2024-02-20T12:18:15.557Z,64.33
2024-02-20T12:19:25.617Z,64.54
2024-02-20T12:20:16.470Z,64.13
2024-02-20T12:21:15.425Z,64.03
2024-02-20T12:22:15.411Z,63.79
2024-02-20T12:23:15.389Z,63.59
2024-02-20T12:24:16.479Z,63.48
2024-02-20T12:25:15.401Z,63.07
2024-02-20T12:26:15.353Z,62.87
2024-02-20T12:27:15.364Z,62.98
2024-02-20T12:28:15.358Z,62.57
2024-02-20T12:29:15.371Z,62.66
2024-02-20T12:30:15.300Z,62.74
2024-02-20T12:31:15.314Z,62.43
2024-02-20T12:32:15.300Z,62.20
2024-02-20T12:33:15.372Z,61.76
2024-02-20T12:34:15.504Z,61.56
2024-02-20T12:35:15.401Z,61.15
2024-02-20T12:36:15.276Z,60.77
2024-02-20T12:37:15.250Z,61.28
2024-02-20T12:38:15.246Z,61.41
2024-02-20T12:39:15.226Z,61.41
2024-02-20T12:40:15.237Z,61.51
2024-02-20T12:41:15.232Z,61.10
2024-02-20T12:42:15.226Z,61.08
2024-02-20T12:43:15.205Z,60.33
2024-02-20T12:44:15.176Z,60.33
2024-02-20T12:45:15.185Z,60.33
2024-02-20T12:46:15.261Z,60.44
2024-02-20T12:47:15.160Z,60.07
2024-02-20T12:48:15.131Z,59.26
2024-02-20T12:49:15.293Z,58.95
2024-02-20T12:50:15.235Z,59.05
2024-02-20T12:51:15.099Z,59.26
2024-02-20T12:52:15.176Z,59.46